createdAt,value
2022-09-14T00:00:35.109Z,22.00
2022-09-14T00:03:25.547Z,19.30
2022-09-14T00:05:55.874Z,19.40
2022-09-14T00:08:26.288Z,18.70
2022-09-14T00:14:39.290Z,21.70
2022-09-14T00:17:09.707Z,21.00
2022-09-14T00:19:40.278Z,23.50
2022-09-14T00:22:13.628Z,21.50
2022-09-14T00:24:43.949Z,18.90
2022-09-14T00:27:14.328Z,18.40
2022-09-14T00:29:44.621Z,18.50
2022-09-14T00:32:15.148Z,20.40
2022-09-14T00:34:45.530Z,21.10
2022-09-14T00:37:15.740Z,20.80
2022-09-14T00:39:45.990Z,20.80
2022-09-14T00:42:20.040Z,19.00
2022-09-14T00:44:50.221Z,18.40
2022-09-14T00:47:21.329Z,18.30
2022-09-14T00:49:52.428Z,18.90
2022-09-14T00:52:27.431Z,19.40
2022-09-14T00:55:00.807Z,19.80
2022-09-14T00:57:36.416Z,19.80
2022-09-14T01:00:09.816Z,18.90
2022-09-14T01:02:41.379Z,18.30
2022-09-14T01:05:13.389Z,18.30
2022-09-14T01:08:05.377Z,18.80
2022-09-14T01:11:01.918Z,19.60
2022-09-14T01:14:15.796Z,19.90
2022-09-14T01:17:09.069Z,20.10
2022-09-14T01:20:14.960Z,19.10
2022-09-14T01:22:52.723Z,17.40
2022-09-14T01:25:35.148Z,18.00
2022-09-14T01:28:34.532Z,20.10
2022-09-14T01:31:14.061Z,20.00
2022-09-14T01:33:55.680Z,20.70
2022-09-14T01:36:29.696Z,20.30
2022-09-14T01:39:00.766Z,19.00
2022-09-14T01:41:33.377Z,18.10
2022-09-14T01:44:27.389Z,17.60
2022-09-14T01:47:03.578Z,18.30
2022-09-14T01:49:57.778Z,19.10
2022-09-14T01:52:38.599Z,18.80
2022-09-14T01:55:15.696Z,20.50
2022-09-14T01:57:56.667Z,20.10
2022-09-14T02:00:28.318Z,18.70
2022-09-14T02:03:07.665Z,19.00
2022-09-14T02:06:01.500Z,17.70
2022-09-14T02:08:33.628Z,18.30
2022-09-14T02:11:04.258Z,19.00
2022-09-14T02:13:35.066Z,19.20
2022-09-14T02:16:06.907Z,19.80
2022-09-14T02:18:37.480Z,20.30
2022-09-14T02:21:21.997Z,18.40
2022-09-14T02:23:52.676Z,17.90
2022-09-14T02:26:26.951Z,19.50
2022-09-14T02:28:58.487Z,20.30
2022-09-14T02:31:56.360Z,19.60
2022-09-14T02:34:45.268Z,20.40
2022-09-14T02:37:49.558Z,20.10
2022-09-14T02:40:31.147Z,16.80
2022-09-14T02:43:25.822Z,18.70
2022-09-14T02:50:27.967Z,18.70
2022-09-14T02:53:09.788Z,19.40
2022-09-14T02:55:47.157Z,18.10
2022-09-14T02:58:17.886Z,17.80
2022-09-14T03:00:52.395Z,17.20
2022-09-14T03:03:23.543Z,17.10
2022-09-14T03:05:53.788Z,18.90
2022-09-14T03:08:24.610Z,19.30
2022-09-14T03:10:55.174Z,20.10
2022-09-14T03:13:25.869Z,18.50
2022-09-14T03:15:56.570Z,18.60
2022-09-14T03:18:27.128Z,17.30
2022-09-14T03:21:05.288Z,17.50
2022-09-14T03:23:40.922Z,18.80
2022-09-14T03:26:13.979Z,19.00
2022-09-14T03:28:44.408Z,19.20
2022-09-14T03:31:15.240Z,19.40
2022-09-14T03:33:45.626Z,19.40
2022-09-14T03:36:19.477Z,17.90
2022-09-14T03:38:54.859Z,17.10
2022-09-14T03:41:29.076Z,18.00
2022-09-14T03:43:59.641Z,18.30
2022-09-14T03:46:30.032Z,19.70
2022-09-14T03:49:00.409Z,19.70
2022-09-14T03:51:30.549Z,19.90
2022-09-14T03:54:00.798Z,17.90
2022-09-14T03:56:31.258Z,17.00
2022-09-14T03:59:01.636Z,16.60
2022-09-14T04:01:33.251Z,18.10
2022-09-14T04:04:04.008Z,18.20
2022-09-14T04:06:36.538Z,19.10
2022-09-14T04:09:07.314Z,18.00
2022-09-14T04:11:37.536Z,18.60
2022-09-14T04:14:08.748Z,17.80
2022-09-14T04:16:39.164Z,16.90
2022-09-14T04:19:10.448Z,15.30
2022-09-14T04:21:41.178Z,17.00
2022-09-14T04:24:15.915Z,18.60
2022-09-14T04:26:48.882Z,16.80
2022-09-14T04:29:19.209Z,18.60
2022-09-14T04:31:49.679Z,17.40
2022-09-14T04:34:19.991Z,16.40
2022-09-14T04:36:50.395Z,16.00
2022-09-14T04:39:20.868Z,15.60
2022-09-14T04:41:51.628Z,14.70
2022-09-14T04:44:21.814Z,16.20
2022-09-14T04:46:52.254Z,16.70
2022-09-14T04:49:22.669Z,17.80
2022-09-14T04:51:53.186Z,17.60
2022-09-14T04:54:26.036Z,14.50
2022-09-14T04:56:56.499Z,14.90
2022-09-14T04:59:27.367Z,14.20
2022-09-14T05:01:57.955Z,13.60
2022-09-14T05:04:28.515Z,14.00
2022-09-14T05:06:58.967Z,15.30
2022-09-14T05:09:29.089Z,16.20
2022-09-14T05:11:59.440Z,15.30
2022-09-14T05:14:29.965Z,14.90
2022-09-14T05:17:03.465Z,14.90
2022-09-14T05:19:33.761Z,14.70
2022-09-14T05:22:05.341Z,14.80
2022-09-14T05:24:35.764Z,15.50
2022-09-14T05:27:06.107Z,16.30
2022-09-14T05:29:36.549Z,15.40
2022-09-14T05:32:06.978Z,15.80
2022-09-14T05:34:37.383Z,13.70
2022-09-14T05:37:07.595Z,14.30
2022-09-14T05:39:37.949Z,14.90
2022-09-14T05:42:11.176Z,15.20
2022-09-14T05:44:41.498Z,14.80
2022-09-14T05:47:11.922Z,15.90
2022-09-14T05:49:42.315Z,16.10
2022-09-14T05:52:12.466Z,13.80
2022-09-14T05:54:42.758Z,12.10
2022-09-14T05:57:13.466Z,14.20
2022-09-14T05:59:47.469Z,13.70
2022-09-14T06:02:21.801Z,13.60
2022-09-14T06:04:57.877Z,15.20
2022-09-14T06:07:34.391Z,14.90
2022-09-14T06:10:05.117Z,12.80
2022-09-14T06:12:35.630Z,11.80
2022-09-14T06:21:47.891Z,12.90
2022-09-14T06:24:18.139Z,12.70
2022-09-14T06:26:48.487Z,13.00
2022-09-14T06:29:19.058Z,11.80
2022-09-14T06:31:49.265Z,10.00
2022-09-14T06:34:19.618Z,10.00
2022-09-14T06:36:50.118Z,9.30
2022-09-14T06:39:20.375Z,9.00
2022-09-14T06:41:52.248Z,9.20
2022-09-14T06:44:22.627Z,10.20
2022-09-14T06:46:52.974Z,9.70
2022-09-14T06:49:25.469Z,12.20
2022-09-14T06:51:57.789Z,12.00
2022-09-14T06:54:28.516Z,12.70
2022-09-14T06:57:00.721Z,10.60
2022-09-14T06:59:31.067Z,9.90
2022-09-14T07:02:01.294Z,9.00
2022-09-14T07:04:31.871Z,9.00
2022-09-14T07:07:02.297Z,7.80
2022-09-14T07:09:33.073Z,6.70
2022-09-14T07:12:03.738Z,7.60
2022-09-14T07:14:33.931Z,7.50
2022-09-14T07:17:04.178Z,7.10
2022-09-14T07:19:34.696Z,8.60
2022-09-14T07:22:05.059Z,7.80
2022-09-14T07:24:35.302Z,6.80
2022-09-14T07:27:05.668Z,6.90
2022-09-14T07:29:36.129Z,6.40
2022-09-14T07:32:07.485Z,5.80
2022-09-14T07:34:37.818Z,6.20
2022-09-14T07:37:08.128Z,6.00
2022-09-14T07:39:38.228Z,5.80
2022-09-14T07:42:08.779Z,6.40
2022-09-14T07:44:42.639Z,5.80
2022-09-14T07:47:16.364Z,5.50
2022-09-14T07:49:46.698Z,5.30
2022-09-14T07:52:17.017Z,5.60
2022-09-14T07:54:47.251Z,7.20
2022-09-14T07:57:17.679Z,8.10
2022-09-14T07:59:47.789Z,4.60
2022-09-14T08:02:18.477Z,4.40
2022-09-14T08:04:49.118Z,3.40
2022-09-14T08:07:19.228Z,3.70
2022-09-14T08:09:50.951Z,4.00
2022-09-14T08:12:21.072Z,3.60
2022-09-14T08:14:51.660Z,3.70
2022-09-14T08:17:24.401Z,3.30
2022-09-14T08:19:56.128Z,4.10
2022-09-14T08:22:26.406Z,4.60
2022-09-14T08:24:56.419Z,3.10
2022-09-14T08:27:26.469Z,3.00
2022-09-14T08:29:56.548Z,3.30
2022-09-14T08:32:26.821Z,2.90
2022-09-14T08:34:56.926Z,3.00
2022-09-14T08:37:27.387Z,4.30
2022-09-14T08:39:58.212Z,4.50
2022-09-14T08:42:28.417Z,3.00
2022-09-14T08:49:48.672Z,3.40
2022-09-14T08:52:32.289Z,2.90
2022-09-14T08:55:21.127Z,2.50
2022-09-14T08:58:16.249Z,2.20
2022-09-14T09:01:16.892Z,2.70
2022-09-14T09:04:17.901Z,2.20
2022-09-14T09:06:59.104Z,2.40
2022-09-14T09:09:45.302Z,2.10
2022-09-14T09:12:25.059Z,2.60
2022-09-14T09:17:47.040Z,2.30
2022-09-14T09:20:24.195Z,2.80
2022-09-14T09:23:10.376Z,2.50
2022-09-14T09:26:01.875Z,2.80
2022-09-14T09:33:00.855Z,3.40
2022-09-14T09:35:44.576Z,2.40
2022-09-14T09:38:25.372Z,2.40
2022-09-14T09:41:14.989Z,2.00
2022-09-14T09:44:03.865Z,2.50
2022-09-14T09:46:36.903Z,2.10
2022-09-14T09:49:40.561Z,1.70
2022-09-14T09:57:29.627Z,1.50
2022-09-14T10:00:23.593Z,1.90
2022-09-14T10:02:55.347Z,1.40
2022-09-14T10:05:31.419Z,1.50
2022-09-14T10:08:08.057Z,1.40
2022-09-14T10:10:44.998Z,1.70
2022-09-14T10:13:33.443Z,2.00
2022-09-14T10:16:20.080Z,2.40
2022-09-14T10:18:54.019Z,1.80
2022-09-14T10:21:26.340Z,1.70
2022-09-14T10:24:17.768Z,1.90
2022-09-14T10:31:17.368Z,1.70
2022-09-14T10:33:49.132Z,1.90
2022-09-14T10:36:31.957Z,1.70
2022-09-14T10:39:46.240Z,2.10
2022-09-14T10:42:39.627Z,1.80
2022-09-14T10:45:22.555Z,2.40
2022-09-14T10:48:24.583Z,2.50
2022-09-14T10:51:16.710Z,1.60
2022-09-14T10:54:00.246Z,1.80
2022-09-14T10:57:08.775Z,1.60
2022-09-14T10:59:57.195Z,1.30
2022-09-14T11:03:15.198Z,1.30
2022-09-14T11:05:57.977Z,1.30
2022-09-14T11:08:55.640Z,1.10
2022-09-14T11:11:34.610Z,1.30
2022-09-14T11:14:32.927Z,1.80
2022-09-14T11:17:34.621Z,1.50
2022-09-14T11:20:28.868Z,6.30
2022-09-14T11:23:22.208Z,2.80
2022-09-14T11:26:04.034Z,1.80
2022-09-14T11:28:45.428Z,1.40
2022-09-14T11:31:28.660Z,1.10
2022-09-14T11:34:28.416Z,1.50
2022-09-14T11:39:43.278Z,1.10
2022-09-14T11:42:25.144Z,1.50
2022-09-14T11:45:15.536Z,1.10
2022-09-14T11:48:09.435Z,1.10
2022-09-14T11:50:52.838Z,1.10
2022-09-14T11:53:26.204Z,1.20
2022-09-14T11:55:56.913Z,1.30
2022-09-14T11:58:30.057Z,1.30
2022-09-14T12:01:31.316Z,1.30
2022-09-14T12:04:20.412Z,1.60
2022-09-14T12:06:54.432Z,1.30
2022-09-14T12:09:25.571Z,1.50
2022-09-14T12:12:00.221Z,1.70
2022-09-14T12:14:30.732Z,1.60
2022-09-14T12:17:42.615Z,1.40
2022-09-14T12:20:39.326Z,1.20
2022-09-14T12:23:30.874Z,1.20
2022-09-14T12:26:08.975Z,1.20
2022-09-14T12:28:39.294Z,1.30
2022-09-14T12:31:40.242Z,1.60
2022-09-14T12:34:10.706Z,1.60
2022-09-14T12:36:40.785Z,1.70
2022-09-14T12:39:35.782Z,1.50
2022-09-14T12:42:30.366Z,1.80
2022-09-14T12:45:46.498Z,1.80
2022-09-14T12:48:48.882Z,2.10
2022-09-14T12:51:32.067Z,2.80
2022-09-14T12:54:29.156Z,1.20
2022-09-14T12:57:29.472Z,1.40
2022-09-14T13:05:03.588Z,3.40
2022-09-14T13:07:40.328Z,2.70
2022-09-14T13:10:26.514Z,1.70
2022-09-14T13:12:58.197Z,1.60
2022-09-14T13:15:33.899Z,1.10
2022-09-14T13:18:19.437Z,1.30
2022-09-14T13:20:55.460Z,1.20
2022-09-14T13:23:29.377Z,1.90
2022-09-14T13:26:00.618Z,1.40
2022-09-14T13:28:34.441Z,1.50
2022-09-14T13:31:05.378Z,1.60
2022-09-14T13:33:36.008Z,1.20
2022-09-14T13:36:07.217Z,1.50
2022-09-14T13:38:40.073Z,1.80
2022-09-14T13:41:15.398Z,2.10
2022-09-14T13:43:47.700Z,2.30
2022-09-14T13:46:20.801Z,1.50
2022-09-14T13:48:52.668Z,1.50
2022-09-14T13:51:31.876Z,1.60
2022-09-14T13:54:30.338Z,1.60
2022-09-14T13:57:22.210Z,1.50
2022-09-14T14:00:20.420Z,1.50
2022-09-14T14:02:54.351Z,1.30
2022-09-14T14:05:33.756Z,2.00
2022-09-14T14:08:05.928Z,1.70
2022-09-14T14:10:48.355Z,1.50
2022-09-14T14:13:30.393Z,1.70
2022-09-14T14:16:21.018Z,1.70
2022-09-14T14:18:54.851Z,3.20
2022-09-14T14:21:25.338Z,1.80
2022-09-14T14:24:17.113Z,2.00
2022-09-14T14:26:57.050Z,2.40
2022-09-14T14:29:27.877Z,1.80
2022-09-14T14:31:58.838Z,2.10
2022-09-14T14:34:32.008Z,2.90
2022-09-14T14:37:03.068Z,2.80
2022-09-14T14:39:34.099Z,2.30
2022-09-14T14:42:04.931Z,2.30
2022-09-14T14:44:38.411Z,2.10
2022-09-14T14:47:08.898Z,2.10
2022-09-14T14:49:39.357Z,2.60
2022-09-14T14:52:09.605Z,2.10
2022-09-14T14:54:41.378Z,1.90
2022-09-14T14:57:12.010Z,2.40
2022-09-14T14:59:42.553Z,2.70
2022-09-14T15:02:12.859Z,2.50
2022-09-14T15:04:43.339Z,2.40
2022-09-14T15:07:13.506Z,2.00
2022-09-14T15:09:46.984Z,2.40
2022-09-14T15:12:18.600Z,2.90
2022-09-14T15:14:49.078Z,3.50
2022-09-14T15:17:19.678Z,5.90
2022-09-14T15:19:50.127Z,4.90
2022-09-14T15:22:21.187Z,6.50
2022-09-14T15:24:51.784Z,6.10
2022-09-14T15:27:24.357Z,5.20
2022-09-14T15:29:54.596Z,6.00
2022-09-14T15:32:56.836Z,6.00
2022-09-14T15:35:27.266Z,6.10
2022-09-14T15:37:57.900Z,5.10
2022-09-14T15:40:28.434Z,5.20
2022-09-14T15:43:06.680Z,5.40
2022-09-14T15:45:37.172Z,4.60
2022-09-14T15:48:08.098Z,4.00
2022-09-14T15:50:46.515Z,3.90
2022-09-14T15:53:18.748Z,4.00
2022-09-14T15:55:48.998Z,3.90
2022-09-14T15:58:22.774Z,3.80
2022-09-14T16:00:53.242Z,3.20
2022-09-14T16:03:23.468Z,3.10
2022-09-14T16:05:53.803Z,2.80
2022-09-14T16:08:24.059Z,2.70
2022-09-14T16:11:01.514Z,2.60
2022-09-14T16:13:32.485Z,2.50
2022-09-14T16:16:13.207Z,2.50
2022-09-14T16:18:59.119Z,2.70
2022-09-14T16:21:29.899Z,2.80
2022-09-14T16:24:02.359Z,2.60
2022-09-14T16:26:36.426Z,2.40
2022-09-14T16:29:08.773Z,2.80
2022-09-14T16:31:40.847Z,2.60
2022-09-14T16:34:15.378Z,2.60
2022-09-14T16:36:46.536Z,2.40
2022-09-14T16:39:19.962Z,2.50
2022-09-14T16:41:50.407Z,2.50
2022-09-14T16:44:25.995Z,2.60
2022-09-14T16:47:03.113Z,2.50
2022-09-14T16:49:33.819Z,2.80
2022-09-14T16:52:04.298Z,2.90
2022-09-14T16:54:34.555Z,2.80
2022-09-14T16:57:04.977Z,2.80
2022-09-14T16:59:35.371Z,2.70
2022-09-14T17:02:05.849Z,2.70
2022-09-14T17:04:36.536Z,2.10
2022-09-14T17:07:10.670Z,2.60
2022-09-14T17:09:41.558Z,2.40
2022-09-14T17:12:12.009Z,2.40
2022-09-14T17:14:42.638Z,2.10
2022-09-14T17:17:12.993Z,2.40
2022-09-14T17:24:16.955Z,2.40
2022-09-14T17:26:47.655Z,2.00
2022-09-14T17:29:18.706Z,1.90
2022-09-14T17:31:49.191Z,2.40
2022-09-14T17:34:19.812Z,2.60
2022-09-14T17:36:50.098Z,2.30
2022-09-14T17:39:20.754Z,2.50
2022-09-14T17:41:51.261Z,2.30
2022-09-14T17:44:22.241Z,2.10
2022-09-14T17:47:30.808Z,2.40
2022-09-14T17:50:04.264Z,2.30
2022-09-14T17:52:37.168Z,2.30
2022-09-14T17:55:08.300Z,2.10
2022-09-14T17:57:38.698Z,2.80
2022-09-14T18:00:10.594Z,2.30
2022-09-14T18:02:43.323Z,2.60
2022-09-14T18:05:13.635Z,2.20
2022-09-14T18:07:44.010Z,2.70
2022-09-14T18:10:18.347Z,2.70
2022-09-14T18:12:53.698Z,2.30
2022-09-14T18:15:24.134Z,2.50
2022-09-14T18:17:54.402Z,2.50
2022-09-14T18:20:24.868Z,2.30
2022-09-14T18:22:55.977Z,2.80
2022-09-14T18:26:04.286Z,2.50
2022-09-14T18:29:06.650Z,3.00
2022-09-14T18:31:49.727Z,2.60
2022-09-14T18:34:25.148Z,2.60
2022-09-14T18:36:56.394Z,2.50
2022-09-14T18:39:27.906Z,2.50
2022-09-14T18:42:00.880Z,2.60
2022-09-14T18:44:33.190Z,2.50
2022-09-14T18:47:04.568Z,2.70
2022-09-14T18:49:36.048Z,2.80
2022-09-14T18:52:09.079Z,2.50
2022-09-14T18:54:39.890Z,2.80
2022-09-14T18:57:10.568Z,2.80
2022-09-14T18:59:41.109Z,2.90
2022-09-14T19:02:13.138Z,2.80
2022-09-14T19:04:46.682Z,3.30
2022-09-14T19:07:17.419Z,3.30
2022-09-14T19:09:48.563Z,3.30
2022-09-14T19:12:21.246Z,3.30
2022-09-14T19:14:52.288Z,2.70
2022-09-14T19:17:23.029Z,3.20
2022-09-14T19:19:54.872Z,3.10
2022-09-14T19:22:25.806Z,3.20
2022-09-14T19:24:57.838Z,3.40
2022-09-14T19:27:31.026Z,3.50
2022-09-14T19:30:02.233Z,3.40
2022-09-14T19:32:33.030Z,3.00
2022-09-14T19:35:03.768Z,3.20
2022-09-14T19:37:35.068Z,3.10
2022-09-14T19:40:06.411Z,3.00
2022-09-14T19:42:37.277Z,3.20
2022-09-14T19:45:08.879Z,2.80
2022-09-14T19:47:39.726Z,3.70
2022-09-14T19:50:10.921Z,3.80
2022-09-14T19:52:41.648Z,2.90
2022-09-14T19:55:12.227Z,3.80
2022-09-14T19:57:42.468Z,3.80
2022-09-14T20:00:17.570Z,4.80
2022-09-14T20:02:48.763Z,4.60
2022-09-14T20:05:22.059Z,4.50
2022-09-14T20:07:52.707Z,4.30
2022-09-14T20:10:23.916Z,130.60
2022-09-14T20:12:55.764Z,18.30
2022-09-14T20:15:26.576Z,11.30
2022-09-14T20:17:57.669Z,6.10
2022-09-14T20:20:28.796Z,3.80
2022-09-14T20:23:02.400Z,8.40
2022-09-14T20:25:33.488Z,4.30
2022-09-14T20:28:04.086Z,5.90
2022-09-14T20:30:34.819Z,4.10
2022-09-14T20:33:06.128Z,29.10
2022-09-14T20:35:37.317Z,18.00
2022-09-14T20:38:07.788Z,6.10
2022-09-14T20:40:38.598Z,4.20
2022-09-14T20:43:09.728Z,5.20
2022-09-14T20:45:40.399Z,5.20
2022-09-14T20:48:10.679Z,4.40
2022-09-14T20:50:41.048Z,6.30
2022-09-14T20:53:11.685Z,4.60
2022-09-14T20:55:42.106Z,4.80
2022-09-14T20:58:12.732Z,4.70
2022-09-14T21:00:43.748Z,7.60
2022-09-14T21:03:15.036Z,5.00
2022-09-14T21:05:45.469Z,4.30
2022-09-14T21:08:15.928Z,4.60
2022-09-14T21:10:47.088Z,4.60
2022-09-14T21:13:17.498Z,5.20
2022-09-14T21:15:50.841Z,11.00
2022-09-14T21:18:22.009Z,10.30
2022-09-14T21:20:52.559Z,6.90
2022-09-14T21:23:23.169Z,7.30
2022-09-14T21:25:58.298Z,6.50
2022-09-14T21:28:29.567Z,4.90
2022-09-14T21:31:17.748Z,5.20
2022-09-14T21:33:51.460Z,4.60
2022-09-14T21:36:27.099Z,4.70
2022-09-14T21:39:04.398Z,4.60
2022-09-14T21:41:35.178Z,5.20
2022-09-14T21:44:06.319Z,4.70
2022-09-14T21:46:37.191Z,5.00
2022-09-14T21:49:07.917Z,5.10
2022-09-14T21:51:45.700Z,5.30
2022-09-14T21:54:17.339Z,5.30
2022-09-14T21:56:48.848Z,4.70
2022-09-14T21:59:21.637Z,8.60
2022-09-14T22:01:52.668Z,5.40
2022-09-14T22:04:25.675Z,7.10
2022-09-14T22:06:59.651Z,6.70
2022-09-14T22:09:30.905Z,5.40
2022-09-14T22:12:01.169Z,5.10
2022-09-14T22:14:31.786Z,5.10
2022-09-14T22:17:02.678Z,5.10
2022-09-14T22:19:33.806Z,4.70
2022-09-14T22:22:04.458Z,4.80
2022-09-14T22:24:39.099Z,4.70
2022-09-14T22:27:11.209Z,5.10
2022-09-14T22:29:42.599Z,5.20
2022-09-14T22:32:14.087Z,4.90
2022-09-14T22:34:49.328Z,4.80
2022-09-14T22:37:20.022Z,4.50
2022-09-14T22:39:52.683Z,5.10
2022-09-14T22:42:24.366Z,4.90
2022-09-14T22:44:54.940Z,4.90
2022-09-14T22:47:25.278Z,5.00
2022-09-14T22:49:55.558Z,4.90
2022-09-14T22:52:29.506Z,4.90
2022-09-14T22:54:59.948Z,5.10
2022-09-14T22:57:30.228Z,4.50
2022-09-14T23:00:00.469Z,5.10
2022-09-14T23:02:30.953Z,5.10
2022-09-14T23:05:01.283Z,5.10
2022-09-14T23:07:32.580Z,4.90
2022-09-14T23:10:02.897Z,4.70
2022-09-14T23:12:34.618Z,4.40
2022-09-14T23:15:05.078Z,4.50
2022-09-14T23:17:35.668Z,4.60
2022-09-14T23:20:08.168Z,4.90
2022-09-14T23:22:38.518Z,5.00
2022-09-14T23:25:09.246Z,5.00
2022-09-14T23:27:39.629Z,4.70
2022-09-14T23:30:13.047Z,4.90
2022-09-14T23:32:43.501Z,4.80
2022-09-14T23:35:14.267Z,5.00
2022-09-14T23:37:44.543Z,4.70
2022-09-14T23:40:15.016Z,4.30
2022-09-14T23:42:45.207Z,4.60
2022-09-14T23:45:16.449Z,4.80
2022-09-14T23:47:47.189Z,5.10
2022-09-14T23:50:17.706Z,5.30
2022-09-14T23:52:48.038Z,5.20
2022-09-14T23:55:18.468Z,4.90
2022-09-14T23:57:48.777Z,5.20
